Time;durP1;ratioP1;P1;durP2;ratioP2;P2;SDS_P1;SDS_P2;PMS_P1;PMS_P2;Temp;Humidity;BMP_temperature;BMP_pressure;BME280_temperature;BME280_humidity;BME280_pressure;Samples;Min_cycle;Max_cycle;Signal;HPM_P1;HPM_P2
2022/10/20 00:02:43;0.00;0.00;0.62;0.00;0.00;0.62;1.20;0.60;;;28.80;27.20;;;;;;2264843;61;20435;-66
2022/10/20 00:05:27;0.00;0.00;0.62;0.00;0.00;0.62;1.50;0.70;;;28.80;27.20;;;;;;2265815;61;20716;-68
2022/10/20 00:08:12;0.00;0.00;0.62;0.00;0.00;0.62;1.30;0.70;;;28.70;27.10;;;;;;2265983;61;20403;-67
2022/10/20 00:10:57;0.00;0.00;0.62;0.00;0.00;0.62;1.50;0.80;;;28.80;27.20;;;;;;2265421;61;20357;-69
2022/10/20 00:13:44;0.00;0.00;0.62;0.00;0.00;0.62;1.30;0.70;;;28.70;27.20;;;;;;2265498;61;20369;-67
2022/10/20 00:16:33;0.00;0.00;0.62;0.00;0.00;0.62;1.37;0.70;;;28.70;27.20;;;;;;2265712;61;20380;-69
2022/10/20 00:19:19;0.00;0.00;0.62;0.00;0.00;0.62;1.53;0.80;;;28.70;27.30;;;;;;2265596;61;20369;-70
2022/10/20 00:22:04;0.00;0.00;0.62;0.00;0.00;0.62;1.30;0.70;;;28.70;27.30;;;;;;2265786;61;20376;-69
2022/10/20 00:24:50;0.00;0.00;0.62;0.00;0.00;0.62;1.27;0.60;;;28.70;27.30;;;;;;2265140;61;20767;-68
2022/10/20 00:27:35;0.00;0.00;0.62;0.00;0.00;0.62;1.60;0.80;;;28.70;27.30;;;;;;2265856;61;20404;-68
2022/10/20 00:30:20;0.00;0.00;0.62;0.00;0.00;0.62;1.20;0.70;;;28.70;27.20;;;;;;2265916;61;20485;-69
2022/10/20 00:33:05;0.00;0.00;0.62;0.00;0.00;0.62;3.00;1.00;;;28.70;27.20;;;;;;2264790;61;20357;-69
2022/10/20 00:35:51;0.00;0.00;0.62;0.00;0.00;0.62;1.50;0.77;;;28.70;27.20;;;;;;2265967;61;20377;-69
2022/10/20 00:38:36;0.00;0.00;0.62;0.00;0.00;0.62;2.07;1.03;;;28.60;27.00;;;;;;2265629;61;20353;-68
2022/10/20 00:41:20;0.00;0.00;0.62;0.00;0.00;0.62;3.20;1.40;;;28.60;26.80;;;;;;2265495;61;20775;-68
2022/10/20 00:44:49;0.00;0.00;0.62;0.00;0.00;0.62;2.00;1.07;;;28.60;27.20;;;;;;2266020;61;20348;-69
2022/10/20 00:47:39;0.00;0.00;0.62;0.00;0.00;0.62;1.67;1.07;;;28.50;26.40;;;;;;2265205;61;20357;-69
2022/10/20 00:50:30;0.00;0.00;0.62;0.00;0.00;0.62;1.80;1.07;;;28.60;26.40;;;;;;2266142;61;20416;-69
2022/10/20 00:53:17;0.00;0.00;0.62;0.00;0.00;0.62;2.10;1.30;;;28.50;26.30;;;;;;2265450;61;20349;-70
2022/10/20 00:56:02;0.00;0.00;0.62;0.00;0.00;0.62;2.33;1.50;;;28.50;26.00;;;;;;2265379;61;20385;-69
2022/10/20 00:58:47;0.00;0.00;0.62;0.00;0.00;0.62;2.73;1.40;;;28.50;26.00;;;;;;2265925;61;20694;-69
2022/10/20 01:01:33;0.00;0.00;0.62;0.00;0.00;0.62;2.03;1.20;;;28.40;25.90;;;;;;2264686;61;20373;-69
2022/10/20 01:04:18;0.00;0.00;0.62;0.00;0.00;0.62;2.03;1.30;;;28.40;25.80;;;;;;2265345;61;20385;-69
2022/10/20 01:07:04;0.00;0.00;0.62;0.00;0.00;0.62;1.77;1.20;;;28.40;25.80;;;;;;2265789;61;20380;-69
2022/10/20 01:09:50;0.00;0.00;0.62;0.00;0.00;0.62;2.40;1.40;;;28.30;25.70;;;;;;2264548;61;20357;-69
2022/10/20 01:12:45;0.00;0.00;0.62;0.00;0.00;0.62;1.83;1.17;;;28.30;25.70;;;;;;2265652;61;20439;-69
2022/10/20 01:15:40;0.00;0.00;0.62;0.00;0.00;0.62;2.63;2.00;;;28.30;26.00;;;;;;2265210;61;20447;-69
2022/10/20 01:18:32;0.00;0.00;0.62;0.00;0.00;0.62;1.77;1.40;;;28.30;25.70;;;;;;2265489;61;20381;-69
2022/10/20 01:21:52;0.00;0.00;0.62;0.00;0.00;0.62;1.90;1.33;;;28.20;25.50;;;;;;2265668;61;20660;-69
2022/10/20 01:25:00;0.00;0.00;0.62;0.00;0.00;0.62;2.40;1.80;;;28.20;26.00;;;;;;2264879;61;20859;-70
2022/10/20 01:27:52;0.00;0.00;0.62;0.00;0.00;0.62;2.13;1.57;;;28.10;25.30;;;;;;2265674;61;20388;-69
2022/10/20 01:30:45;0.00;0.00;0.62;0.00;0.00;0.62;1.83;1.30;;;28.10;25.20;;;;;;2265335;61;20377;-70
2022/10/20 01:33:38;0.00;0.00;0.62;0.00;0.00;0.62;2.33;1.30;;;28.10;25.20;;;;;;2265886;61;20733;-68
2022/10/20 01:36:33;0.00;0.00;0.62;0.00;0.00;0.62;2.00;1.37;;;28.00;25.10;;;;;;2266416;61;20376;-68
2022/10/20 01:39:25;0.00;0.00;0.62;0.00;0.00;0.62;1.90;1.20;;;28.00;25.20;;;;;;2265715;61;20384;-68
2022/10/20 01:42:15;0.00;0.00;0.62;0.00;0.00;0.62;2.10;1.50;;;28.00;25.10;;;;;;2266364;61;20471;-69
2022/10/20 01:45:04;0.00;0.00;0.62;0.00;0.00;0.62;2.40;1.50;;;28.00;25.10;;;;;;2266033;61;20380;-69
2022/10/20 01:47:50;0.00;0.00;0.62;0.00;0.00;0.62;2.07;1.13;;;27.90;25.00;;;;;;2266053;61;20411;-68
2022/10/20 01:50:37;0.00;0.00;0.62;0.00;0.00;0.62;1.60;1.27;;;27.90;25.00;;;;;;2266387;61;20751;-68
2022/10/20 01:53:21;0.00;0.00;0.62;0.00;0.00;0.62;2.80;1.57;;;27.90;25.00;;;;;;2265565;61;20357;-68
2022/10/20 01:56:15;0.00;0.00;0.62;0.00;0.00;0.62;2.20;1.50;;;27.80;24.90;;;;;;2266285;61;20760;-68
2022/10/20 01:59:31;0.00;0.00;0.62;0.00;0.00;0.62;3.77;1.63;;;27.80;24.80;;;;;;2266408;61;20344;-69
2022/10/20 02:02:43;0.00;0.00;0.62;0.00;0.00;0.62;3.50;1.80;;;27.80;24.80;;;;;;2265838;61;20638;-69
2022/10/20 02:05:51;0.00;0.00;0.62;0.00;0.00;0.62;1.90;1.40;;;27.70;24.70;;;;;;2266285;61;20411;-68
2022/10/20 02:08:43;0.00;0.00;0.62;0.00;0.00;0.62;2.43;1.50;;;27.70;24.70;;;;;;2262414;61;20388;-69
2022/10/20 02:11:40;0.00;0.00;0.62;0.00;0.00;0.62;2.20;1.57;;;27.70;24.70;;;;;;2266196;61;20774;-68
2022/10/20 02:14:26;0.00;0.00;0.62;0.00;0.00;0.62;2.80;1.50;;;27.60;24.70;;;;;;2266065;61;20396;-68
2022/10/20 02:17:14;0.00;0.00;0.62;0.00;0.00;0.62;1.80;1.40;;;27.60;24.70;;;;;;2265658;61;20384;-69
2022/10/20 02:20:01;0.00;0.00;0.62;0.00;0.00;0.62;1.50;1.10;;;27.50;24.70;;;;;;2265810;61;20349;-68
2022/10/20 02:22:47;0.00;0.00;0.62;0.00;0.00;0.62;2.33;1.63;;;27.50;24.60;;;;;;2265868;61;20455;-68
2022/10/20 02:25:32;0.00;0.00;0.62;0.00;0.00;0.62;3.50;2.00;;;27.50;24.70;;;;;;2266229;61;20397;-68
2022/10/20 02:28:19;0.00;0.00;0.62;0.00;0.00;0.62;3.20;2.17;;;27.40;24.60;;;;;;2266321;61;20384;-68
2022/10/20 02:31:05;0.00;0.00;0.62;0.00;0.00;0.62;3.00;2.40;;;27.40;24.60;;;;;;2265534;61;20411;-69
2022/10/20 02:33:52;0.00;0.00;0.62;0.00;0.00;0.62;3.90;3.37;;;27.40;24.60;;;;;;2266215;61;20403;-68
2022/10/20 02:36:40;0.00;0.00;0.62;0.00;0.00;0.62;3.33;3.03;;;27.40;24.60;;;;;;2266120;61;20705;-68
2022/10/20 02:39:26;0.00;0.00;0.62;0.00;0.00;0.62;4.17;3.77;;;27.40;24.60;;;;;;2265661;61;20365;-69
2022/10/20 02:42:11;0.00;0.00;0.62;0.00;0.00;0.62;5.63;4.03;;;27.30;24.60;;;;;;2266330;61;20423;-69
2022/10/20 02:44:56;0.00;0.00;0.62;0.00;0.00;0.62;4.10;3.60;;;27.20;24.60;;;;;;2265823;61;20400;-69
2022/10/20 02:47:41;0.00;0.00;0.62;0.00;0.00;0.62;5.17;4.57;;;27.20;24.60;;;;;;2266156;61;20393;-68
2022/10/20 02:50:25;0.00;0.00;0.62;0.00;0.00;0.62;5.73;4.17;;;27.20;24.60;;;;;;2266315;61;20403;-69
2022/10/20 02:53:12;0.00;0.00;0.62;0.00;0.00;0.62;3.77;3.30;;;27.20;24.60;;;;;;2265304;61;20383;-69
2022/10/20 02:55:57;0.00;0.00;0.62;0.00;0.00;0.62;4.10;3.30;;;27.10;24.60;;;;;;2266042;61;20459;-69
2022/10/20 02:58:42;0.00;0.00;0.62;0.00;0.00;0.62;4.07;3.67;;;27.10;24.60;;;;;;2266349;61;20426;-68
2022/10/20 03:01:28;0.00;0.00;0.62;0.00;0.00;0.62;4.00;3.63;;;27.10;24.60;;;;;;2265633;61;20686;-68
2022/10/20 03:04:13;0.00;0.00;0.62;0.00;0.00;0.62;3.47;3.10;;;27.00;24.60;;;;;;2266080;61;20403;-69
2022/10/20 03:06:58;0.00;0.00;0.62;0.00;0.00;0.62;3.20;2.90;;;27.00;24.60;;;;;;2265982;61;20349;-68
2022/10/20 03:09:44;0.00;0.00;0.62;0.00;0.00;0.62;3.37;2.90;;;27.00;24.70;;;;;;2266091;61;20705;-68
2022/10/20 03:12:29;0.00;0.00;0.62;0.00;0.00;0.62;3.83;2.73;;;27.00;24.70;;;;;;2266183;61;20357;-68
2022/10/20 03:15:14;0.00;0.00;0.62;0.00;0.00;0.62;3.47;2.63;;;26.90;24.70;;;;;;2265340;61;20412;-69
2022/10/20 03:17:59;0.00;0.00;0.62;0.00;0.00;0.62;2.73;2.43;;;26.90;24.70;;;;;;2266184;61;20558;-69
2022/10/20 03:20:44;0.00;0.00;0.62;0.00;0.00;0.62;2.70;2.50;;;26.80;24.60;;;;;;2266180;61;20440;-68
2022/10/20 03:23:28;0.00;0.00;0.62;0.00;0.00;0.62;3.00;2.53;;;26.80;24.60;;;;;;2265425;61;20361;-69
2022/10/20 03:26:14;0.00;0.00;0.62;0.00;0.00;0.62;3.10;2.60;;;26.80;24.60;;;;;;2266079;61;20401;-67
2022/10/20 03:28:59;0.00;0.00;0.62;0.00;0.00;0.62;2.33;2.00;;;26.80;24.50;;;;;;2265805;61;20399;-68
2022/10/20 03:31:44;0.00;0.00;0.62;0.00;0.00;0.62;2.53;1.87;;;26.70;24.50;;;;;;2265714;61;20383;-68
2022/10/20 03:34:29;0.00;0.00;0.62;0.00;0.00;0.62;2.20;1.77;;;26.70;25.10;;;;;;2265995;61;20384;-68
2022/10/20 03:37:13;0.00;0.00;0.62;0.00;0.00;0.62;2.70;2.10;;;26.70;24.50;;;;;;2265198;61;20357;-68
2022/10/20 03:39:58;0.00;0.00;0.62;0.00;0.00;0.62;2.97;2.00;;;26.70;24.60;;;;;;2266132;61;20361;-68
2022/10/20 03:42:44;0.00;0.00;0.62;0.00;0.00;0.62;3.90;2.53;;;26.60;24.50;;;;;;2265826;61;20407;-67
2022/10/20 03:45:29;0.00;0.00;0.62;0.00;0.00;0.62;2.07;1.77;;;26.60;24.50;;;;;;2265237;61;20605;-68
2022/10/20 03:48:14;0.00;0.00;0.62;0.00;0.00;0.62;3.67;2.00;;;26.50;24.50;;;;;;2266167;61;20402;-68
2022/10/20 03:50:59;0.00;0.00;0.62;0.00;0.00;0.62;2.07;1.80;;;26.50;24.50;;;;;;2265513;61;20396;-69
2022/10/20 03:53:44;0.00;0.00;0.62;0.00;0.00;0.62;2.57;2.00;;;26.50;24.50;;;;;;2265531;61;20365;-69
2022/10/20 03:56:29;0.00;0.00;0.62;0.00;0.00;0.62;3.07;2.07;;;26.50;24.60;;;;;;2266006;61;20360;-68
2022/10/20 03:59:15;0.00;0.00;0.62;0.00;0.00;0.62;2.57;1.80;;;26.40;24.50;;;;;;2265095;61;20395;-69
2022/10/20 04:01:59;0.00;0.00;0.62;0.00;0.00;0.62;2.20;1.60;;;26.40;24.50;;;;;;2266064;61;20388;-68
2022/10/20 04:04:44;0.00;0.00;0.62;0.00;0.00;0.62;3.37;1.70;;;26.40;24.50;;;;;;2265721;61;20377;-68
2022/10/20 04:07:29;0.00;0.00;0.62;0.00;0.00;0.62;2.43;1.73;;;26.30;24.50;;;;;;2265343;61;20400;-69
2022/10/20 04:10:16;0.00;0.00;0.62;0.00;0.00;0.62;1.87;1.63;;;26.40;24.60;;;;;;2267077;61;20600;-69
2022/10/20 04:13:01;0.00;0.00;0.62;0.00;0.00;0.62;2.73;1.97;;;26.30;24.60;;;;;;2266173;61;20357;-68
2022/10/20 04:15:47;0.00;0.00;0.62;0.00;0.00;0.62;3.13;1.90;;;26.30;25.20;;;;;;2266867;61;20395;-68
2022/10/20 04:18:32;0.00;0.00;0.62;0.00;0.00;0.62;1.90;1.50;;;26.30;24.60;;;;;;2267455;61;20373;-69
2022/10/20 04:21:17;0.00;0.00;0.62;0.00;0.00;0.62;3.10;1.43;;;26.30;24.60;;;;;;2265977;61;20407;-69
2022/10/20 04:24:01;0.00;0.00;0.62;0.00;0.00;0.62;2.10;1.60;;;26.20;24.60;;;;;;2265875;61;20357;-68
2022/10/20 04:26:48;0.00;0.00;0.62;0.00;0.00;0.62;2.80;1.73;;;26.20;24.60;;;;;;2265853;61;20364;-69
2022/10/20 04:29:33;0.00;0.00;0.62;0.00;0.00;0.62;3.00;1.97;;;26.20;25.20;;;;;;2264652;61;20685;-68
2022/10/20 04:32:20;0.00;0.00;0.62;0.00;0.00;0.62;2.50;1.80;;;26.20;24.70;;;;;;2265738;61;20352;-69
2022/10/20 04:35:05;0.00;0.00;0.62;0.00;0.00;0.62;2.20;1.43;;;26.20;24.70;;;;;;2265415;61;20608;-69
2022/10/20 04:37:50;0.00;0.00;0.62;0.00;0.00;0.62;3.30;1.70;;;26.10;24.60;;;;;;2264839;61;20403;-68
2022/10/20 04:40:35;0.00;0.00;0.62;0.00;0.00;0.62;2.10;1.70;;;26.10;24.70;;;;;;2265845;61;20377;-68
2022/10/20 04:43:20;0.00;0.00;0.62;0.00;0.00;0.62;3.03;1.60;;;26.10;24.70;;;;;;2265570;61;20719;-68
2022/10/20 04:46:05;0.00;0.00;0.62;0.00;0.00;0.62;3.10;1.57;;;26.10;24.70;;;;;;2265585;61;20607;-69
2022/10/20 04:48:52;0.00;0.00;0.62;0.00;0.00;0.62;2.43;1.63;;;26.00;24.60;;;;;;2568616;45;20412;-70
2022/10/20 04:51:37;0.00;0.00;0.62;0.00;0.00;0.62;3.20;1.23;;;26.00;25.20;;;;;;2260783;61;20773;-68
2022/10/20 04:54:21;0.00;0.00;0.62;0.00;0.00;0.62;2.00;1.57;;;26.00;24.60;;;;;;2261565;61;20382;-68
2022/10/20 04:57:06;0.00;0.00;0.62;0.00;0.00;0.62;2.10;1.40;;;26.00;24.60;;;;;;2261962;61;20569;-68
2022/10/20 04:59:51;0.00;0.00;0.62;0.00;0.00;0.62;2.70;1.60;;;26.00;24.60;;;;;;2261267;61;20378;-68
2022/10/20 05:02:36;0.00;0.00;0.62;0.00;0.00;0.62;2.93;1.70;;;25.90;24.60;;;;;;2261612;61;20452;-69
2022/10/20 05:05:22;0.00;0.00;0.62;0.00;0.00;0.62;2.20;1.83;;;25.90;24.60;;;;;;2261533;61;20494;-69
2022/10/20 05:08:07;0.00;0.00;0.62;0.00;0.00;0.62;1.93;1.30;;;25.80;24.60;;;;;;2261332;61;20373;-68
2022/10/20 05:10:51;0.00;0.00;0.62;0.00;0.00;0.62;2.57;1.70;;;25.90;25.20;;;;;;2261833;61;20401;-69
2022/10/20 05:13:36;0.00;0.00;0.62;0.00;0.00;0.62;1.97;1.43;;;25.80;24.60;;;;;;2260487;61;20397;-69
2022/10/20 05:16:22;0.00;0.00;0.62;0.00;0.00;0.62;2.23;1.63;;;25.80;24.60;;;;;;2261592;61;20449;-69
2022/10/20 05:19:07;0.00;0.00;0.62;0.00;0.00;0.62;3.27;1.73;;;25.80;24.60;;;;;;2261809;61;20448;-69
2022/10/20 05:21:54;0.00;0.00;0.62;0.00;0.00;0.62;2.53;1.70;;;25.80;24.60;;;;;;2261171;61;20374;-69
2022/10/20 05:24:39;0.00;0.00;0.62;0.00;0.00;0.62;2.70;1.43;;;25.80;24.60;;;;;;2261673;61;20394;-68
2022/10/20 05:27:25;0.00;0.00;0.62;0.00;0.00;0.62;2.03;1.63;;;25.70;24.60;;;;;;2261439;61;20733;-68
2022/10/20 05:30:10;0.00;0.00;0.62;0.00;0.00;0.62;2.80;1.90;;;25.70;24.60;;;;;;2260653;61;20446;-69
2022/10/20 05:32:55;0.00;0.00;0.62;0.00;0.00;0.62;3.10;2.00;;;25.70;24.60;;;;;;2261696;61;20353;-67
2022/10/20 05:35:40;0.00;0.00;0.62;0.00;0.00;0.62;3.73;1.83;;;25.70;24.60;;;;;;2260555;61;20441;-68
2022/10/20 05:38:26;0.00;0.00;0.62;0.00;0.00;0.62;2.10;1.60;;;25.70;24.60;;;;;;2261527;61;20362;-67
2022/10/20 05:41:13;0.00;0.00;0.62;0.00;0.00;0.62;2.80;1.80;;;25.70;24.70;;;;;;2261739;61;20366;-66
2022/10/20 05:44:01;0.00;0.00;0.62;0.00;0.00;0.62;2.53;1.67;;;25.60;24.60;;;;;;2260618;61;20394;-67
2022/10/20 05:46:46;0.00;0.00;0.62;0.00;0.00;0.62;2.17;1.50;;;25.60;24.60;;;;;;2261655;61;20362;-66
2022/10/20 05:49:30;0.00;0.00;0.62;0.00;0.00;0.62;2.27;1.70;;;25.60;24.60;;;;;;2261187;61;20611;-68
2022/10/20 05:52:15;0.00;0.00;0.62;0.00;0.00;0.62;1.90;1.40;;;25.60;24.60;;;;;;2260944;61;20583;-69
2022/10/20 05:55:01;0.00;0.00;0.62;0.00;0.00;0.62;2.63;2.00;;;25.50;24.70;;;;;;2261316;61;20393;-66
2022/10/20 05:57:49;0.00;0.00;0.62;0.00;0.00;0.62;2.40;1.53;;;25.50;24.70;;;;;;2260107;61;20793;-69
2022/10/20 06:00:40;0.00;0.00;0.62;0.00;0.00;0.62;2.60;1.70;;;25.50;24.70;;;;;;2272334;61;20361;-70
2022/10/20 06:03:25;0.00;0.00;0.62;0.00;0.00;0.62;2.90;1.80;;;25.50;24.70;;;;;;2282269;61;20411;-70
2022/10/20 06:06:10;0.00;0.00;0.62;0.00;0.00;0.62;2.80;1.80;;;25.50;24.80;;;;;;2268021;61;20668;-70
2022/10/20 06:08:56;0.00;0.00;0.62;0.00;0.00;0.62;2.27;1.57;;;25.50;24.80;;;;;;2269742;61;20732;-68
2022/10/20 06:11:41;0.00;0.00;0.62;0.00;0.00;0.62;2.97;2.07;;;25.50;24.70;;;;;;2268654;61;20348;-68
2022/10/20 06:14:26;0.00;0.00;0.62;0.00;0.00;0.62;2.83;1.50;;;25.40;24.60;;;;;;2269208;61;20380;-69
2022/10/20 06:17:11;0.00;0.00;0.62;0.00;0.00;0.62;2.90;1.80;;;25.40;24.70;;;;;;2269638;61;20364;-63
2022/10/20 06:19:56;0.00;0.00;0.62;0.00;0.00;0.62;3.07;2.13;;;25.40;24.70;;;;;;2267590;61;20352;-70
2022/10/20 06:22:40;0.00;0.00;0.62;0.00;0.00;0.62;2.67;2.00;;;25.40;24.70;;;;;;2502714;53;20376;-69
2022/10/20 06:25:25;0.00;0.00;0.62;0.00;0.00;0.62;4.97;1.90;;;25.30;24.60;;;;;;2265642;61;20693;-67
2022/10/20 06:28:11;0.00;0.00;0.62;0.00;0.00;0.62;2.47;1.97;;;25.30;24.60;;;;;;2277595;58;20748;-68
2022/10/20 06:30:56;0.00;0.00;0.62;0.00;0.00;0.62;3.27;1.80;;;25.30;24.50;;;;;;2265977;61;20373;-67
2022/10/20 06:33:42;0.00;0.00;0.62;0.00;0.00;0.62;3.20;2.10;;;25.20;24.50;;;;;;2265216;61;20377;-67
2022/10/20 06:36:27;0.00;0.00;0.62;0.00;0.00;0.62;2.23;1.57;;;25.20;24.50;;;;;;2265846;61;20437;-66
2022/10/20 06:39:13;0.00;0.00;0.62;0.00;0.00;0.62;1.97;1.30;;;25.20;24.60;;;;;;2265984;61;20360;-64
2022/10/20 06:41:58;0.00;0.00;0.62;0.00;0.00;0.62;2.50;1.70;;;25.20;24.60;;;;;;2265198;61;20385;-68
2022/10/20 06:44:50;0.00;0.00;0.62;0.00;0.00;0.62;2.10;1.37;;;25.20;24.60;;;;;;2266045;61;20408;-65
2022/10/20 06:47:35;0.00;0.00;0.62;0.00;0.00;0.62;3.17;1.97;;;25.20;24.70;;;;;;2265929;61;20578;-69
2022/10/20 06:50:19;0.00;0.00;0.62;0.00;0.00;0.62;2.17;1.50;;;25.10;24.70;;;;;;2265218;61;20817;-73
2022/10/20 06:53:04;0.00;0.00;0.62;0.00;0.00;0.62;1.80;1.33;;;25.10;24.70;;;;;;2265894;61;20709;-70
2022/10/20 06:55:56;0.00;0.00;0.62;0.00;0.00;0.62;2.07;1.43;;;25.10;24.70;;;;;;2265442;61;20376;-69
2022/10/20 06:58:44;0.00;0.00;0.62;0.00;0.00;0.62;2.13;1.27;;;25.10;24.70;;;;;;2265857;61;20353;-70
2022/10/20 07:01:32;0.00;0.00;0.62;0.00;0.00;0.62;2.20;1.47;;;25.10;24.70;;;;;;2265845;61;20350;-65
2022/10/20 07:04:17;0.00;0.00;0.62;0.00;0.00;0.62;2.03;1.40;;;25.10;24.80;;;;;;2266857;61;20461;-71
2022/10/20 07:07:01;0.00;0.00;0.62;0.00;0.00;0.62;2.40;1.53;;;25.10;24.80;;;;;;2265877;61;20549;-71
2022/10/20 07:09:46;0.00;0.00;0.62;0.00;0.00;0.62;2.40;1.80;;;25.10;25.20;;;;;;2265848;61;20380;-66
2022/10/20 07:12:31;0.00;0.00;0.62;0.00;0.00;0.62;2.40;1.83;;;25.10;24.70;;;;;;2265375;61;20389;-69
2022/10/20 07:15:16;0.00;0.00;0.62;0.00;0.00;0.62;2.67;1.50;;;25.10;24.80;;;;;;2265767;61;20377;-71
2022/10/20 07:18:02;0.00;0.00;0.62;0.00;0.00;0.62;1.93;1.50;;;25.10;24.80;;;;;;2265450;61;20365;-73
2022/10/20 07:20:47;0.00;0.00;0.62;0.00;0.00;0.62;2.40;1.40;;;25.10;24.80;;;;;;2265342;61;20357;-71
2022/10/20 07:23:34;0.00;0.00;0.62;0.00;0.00;0.62;3.10;1.67;;;25.10;24.80;;;;;;2265545;61;20392;-72
2022/10/20 07:26:21;0.00;0.00;0.62;0.00;0.00;0.62;1.97;1.27;;;25.10;24.80;;;;;;2265343;61;20476;-71
2022/10/20 07:29:07;0.00;0.00;0.62;0.00;0.00;0.62;2.97;1.37;;;25.10;24.80;;;;;;2265356;61;20360;-69
2022/10/20 07:31:52;0.00;0.00;0.62;0.00;0.00;0.62;2.57;1.37;;;25.10;24.90;;;;;;2265809;61;20402;-66
2022/10/20 07:34:38;0.00;0.00;0.62;0.00;0.00;0.62;2.17;1.50;;;25.10;24.90;;;;;;2265417;61;20407;-66
2022/10/20 07:37:23;0.00;0.00;0.62;0.00;0.00;0.62;1.80;1.33;;;25.10;24.90;;;;;;2265729;61;20733;-70
2022/10/20 07:40:09;0.00;0.00;0.62;0.00;0.00;0.62;2.40;1.57;;;25.10;24.80;;;;;;2265543;61;20381;-71
2022/10/20 07:42:54;0.00;0.00;0.62;0.00;0.00;0.62;2.10;1.70;;;25.10;24.80;;;;;;2265525;61;20372;-71
2022/10/20 07:45:39;0.00;0.00;0.62;0.00;0.00;0.62;2.20;1.47;;;25.10;24.80;;;;;;2265763;61;20400;-71
2022/10/20 07:48:24;0.00;0.00;0.62;0.00;0.00;0.62;2.27;1.43;;;25.10;24.80;;;;;;2265057;61;20357;-68
2022/10/20 07:51:25;0.00;0.00;0.62;0.00;0.00;0.62;2.33;1.70;;;25.00;24.80;;;;;;2265379;61;20404;-72
2022/10/20 07:54:10;0.00;0.00;0.62;0.00;0.00;0.62;2.80;1.80;;;25.00;25.30;;;;;;2265316;61;20582;-71
2022/10/20 07:56:56;0.00;0.00;0.62;0.00;0.00;0.62;3.20;1.80;;;25.00;24.80;;;;;;2264894;61;20433;-71
2022/10/20 07:59:41;0.00;0.00;0.62;0.00;0.00;0.62;2.50;1.83;;;25.00;24.70;;;;;;2265815;61;20396;-70
2022/10/20 08:02:26;0.00;0.00;0.62;0.00;0.00;0.62;1.73;1.27;;;25.00;24.70;;;;;;2264833;61;20380;-68
2022/10/20 08:05:11;0.00;0.00;0.62;0.00;0.00;0.62;3.27;1.80;;;25.00;24.80;;;;;;2265038;61;20404;-70
2022/10/20 08:07:59;0.00;0.00;0.62;0.00;0.00;0.62;2.67;1.60;;;25.00;24.80;;;;;;2265682;61;20479;-69
2022/10/20 08:10:44;0.00;0.00;0.62;0.00;0.00;0.62;2.40;1.67;;;25.00;24.70;;;;;;2265014;61;20832;-71
2022/10/20 08:13:30;0.00;0.00;0.62;0.00;0.00;0.62;2.43;1.60;;;25.00;24.70;;;;;;2264980;61;20391;-74
2022/10/20 08:16:16;0.00;0.00;0.62;0.00;0.00;0.62;3.83;2.40;;;25.00;24.70;;;;;;2265272;61;20736;-70
2022/10/20 08:19:00;0.00;0.00;0.62;0.00;0.00;0.62;2.30;1.80;;;25.00;24.70;;;;;;2264945;61;20365;-72
2022/10/20 08:21:45;0.00;0.00;0.62;0.00;0.00;0.62;2.80;2.00;;;25.00;24.70;;;;;;2265439;61;20601;-69
2022/10/20 08:24:31;0.00;0.00;0.62;0.00;0.00;0.62;4.50;2.53;;;25.00;24.70;;;;;;2265283;61;20412;-73
2022/10/20 08:27:16;0.00;0.00;0.62;0.00;0.00;0.62;3.93;1.60;;;25.00;24.70;;;;;;2265014;61;20372;-68
2022/10/20 08:30:01;0.00;0.00;0.62;0.00;0.00;0.62;2.27;1.53;;;25.00;24.70;;;;;;2407768;53;20418;-67
2022/10/20 08:32:49;0.00;0.00;0.62;0.00;0.00;0.62;2.00;1.60;;;25.00;24.80;;;;;;2268923;61;20716;-70
2022/10/20 08:35:34;0.00;0.00;0.62;0.00;0.00;0.62;2.17;1.50;;;25.00;24.80;;;;;;2266388;61;20811;-71
2022/10/20 08:38:19;0.00;0.00;0.62;0.00;0.00;0.62;2.50;1.60;;;25.00;24.80;;;;;;2265658;61;20469;-69
2022/10/20 08:41:13;0.00;0.00;0.62;0.00;0.00;0.62;2.10;1.43;;;25.00;24.90;;;;;;2264749;61;20354;-73
2022/10/20 08:44:00;0.00;0.00;0.62;0.00;0.00;0.62;2.17;1.40;;;25.00;24.90;;;;;;2265262;61;20682;-71
2022/10/20 08:46:44;0.00;0.00;0.62;0.00;0.00;0.62;2.43;1.30;;;25.10;25.00;;;;;;2265104;61;20582;-70
2022/10/20 08:49:33;0.00;0.00;0.62;0.00;0.00;0.62;4.90;1.30;;;25.10;25.00;;;;;;2265314;61;20717;-74
2022/10/20 08:52:21;0.00;0.00;0.62;0.00;0.00;0.62;1.70;1.30;;;25.20;25.20;;;;;;2265622;61;20352;-72
2022/10/20 08:55:14;0.00;0.00;0.62;0.00;0.00;0.62;2.00;1.30;;;25.20;25.20;;;;;;2264553;61;20516;-69
2022/10/20 08:58:04;0.00;0.00;0.62;0.00;0.00;0.62;2.03;1.40;;;25.20;25.20;;;;;;2265585;61;20407;-70
2022/10/20 09:00:57;0.00;0.00;0.62;0.00;0.00;0.62;1.63;1.10;;;25.20;25.20;;;;;;2265102;61;20581;-70
2022/10/20 09:03:42;0.00;0.00;0.62;0.00;0.00;0.62;1.60;1.10;;;25.30;25.20;;;;;;2264389;61;20512;-72
2022/10/20 09:06:27;0.00;0.00;0.62;0.00;0.00;0.62;1.83;1.33;;;25.30;25.30;;;;;;2284781;61;20725;-73
2022/10/20 09:09:15;0.00;0.00;0.62;0.00;0.00;0.62;1.83;1.33;;;25.30;25.30;;;;;;2265218;61;20757;-67
2022/10/20 09:12:04;0.00;0.00;0.62;0.00;0.00;0.62;1.80;1.20;;;25.40;25.30;;;;;;2265385;61;20344;-67
2022/10/20 09:14:50;0.00;0.00;0.62;0.00;0.00;0.62;1.97;1.30;;;25.40;25.40;;;;;;2265524;61;20639;-68
2022/10/20 09:17:35;0.00;0.00;0.62;0.00;0.00;0.62;1.70;1.10;;;25.50;25.40;;;;;;2263849;61;20357;-71
2022/10/20 09:20:24;0.00;0.00;0.62;0.00;0.00;0.62;1.70;1.20;;;25.50;25.40;;;;;;2265427;61;20365;-70
2022/10/20 09:23:12;0.00;0.00;0.62;0.00;0.00;0.62;1.70;1.17;;;25.50;25.40;;;;;;2265138;61;20385;-69
2022/10/20 09:25:57;0.00;0.00;0.62;0.00;0.00;0.62;1.87;1.17;;;25.50;26.00;;;;;;2264789;61;20373;-70
2022/10/20 09:28:41;0.00;0.00;0.62;0.00;0.00;0.62;1.70;1.00;;;25.60;25.50;;;;;;2265481;61;20676;-68
2022/10/20 09:31:34;0.00;0.00;0.62;0.00;0.00;0.62;1.80;1.40;;;25.60;25.50;;;;;;2265067;61;20406;-66
2022/10/20 09:34:24;0.00;0.00;0.62;0.00;0.00;0.62;3.63;1.43;;;25.70;25.60;;;;;;2265296;61;20399;-67
2022/10/20 09:37:12;0.00;0.00;0.62;0.00;0.00;0.62;1.77;1.30;;;25.70;25.60;;;;;;2265328;61;20403;-68
2022/10/20 09:39:58;0.00;0.00;0.62;0.00;0.00;0.62;2.63;1.67;;;25.70;25.60;;;;;;2264808;61;20433;-70
2022/10/20 09:42:49;0.00;0.00;0.62;0.00;0.00;0.62;1.83;1.33;;;25.80;25.70;;;;;;2265272;61;20376;-70
2022/10/20 09:45:36;0.00;0.00;0.62;0.00;0.00;0.62;1.60;1.13;;;25.80;25.70;;;;;;2265241;61;20384;-67
2022/10/20 09:48:26;0.00;0.00;0.62;0.00;0.00;0.62;2.07;1.50;;;25.80;25.70;;;;;;2265203;61;20360;-70
2022/10/20 09:51:15;0.00;0.00;0.62;0.00;0.00;0.62;2.27;1.10;;;25.90;25.80;;;;;;2264517;61;20372;-71
2022/10/20 09:54:05;0.00;0.00;0.62;0.00;0.00;0.62;1.80;1.30;;;25.90;26.30;;;;;;2265058;61;20357;-66
2022/10/20 09:56:51;0.00;0.00;0.62;0.00;0.00;0.62;2.20;1.30;;;25.90;25.80;;;;;;2266306;61;20357;-66
2022/10/20 09:59:41;0.00;0.00;0.62;0.00;0.00;0.62;1.97;1.30;;;26.00;25.90;;;;;;2265986;61;20453;-69
2022/10/20 10:02:30;0.00;0.00;0.62;0.00;0.00;0.62;2.27;1.50;;;26.00;25.90;;;;;;2265800;61;20455;-69
2022/10/20 10:05:19;0.00;0.00;0.62;0.00;0.00;0.62;2.07;1.33;;;26.10;25.90;;;;;;2265670;61;20471;-71
2022/10/20 10:08:11;0.00;0.00;0.62;0.00;0.00;0.62;1.97;1.30;;;26.10;25.90;;;;;;2265673;61;20489;-72
2022/10/20 10:11:00;0.00;0.00;0.62;0.00;0.00;0.62;2.13;1.40;;;26.10;25.90;;;;;;2265882;61;20361;-73
2022/10/20 10:13:48;0.00;0.00;0.62;0.00;0.00;0.62;2.10;1.33;;;26.20;26.00;;;;;;2265983;61;20369;-69
2022/10/20 10:16:41;0.00;0.00;0.62;0.00;0.00;0.62;2.70;1.13;;;26.20;26.00;;;;;;2265407;61;20416;-67
2022/10/20 10:19:29;0.00;0.00;0.62;0.00;0.00;0.62;1.53;1.03;;;26.20;26.00;;;;;;2266120;61;20456;-68
2022/10/20 10:22:15;0.00;0.00;0.62;0.00;0.00;0.62;2.20;1.43;;;26.30;26.00;;;;;;2266021;61;20427;-67
2022/10/20 10:25:00;0.00;0.00;0.62;0.00;0.00;0.62;1.80;1.10;;;26.30;26.00;;;;;;2265469;61;20616;-66
2022/10/20 10:27:58;0.00;0.00;0.62;0.00;0.00;0.62;2.50;1.07;;;26.30;26.00;;;;;;2265903;61;20639;-69
2022/10/20 10:30:43;0.00;0.00;0.62;0.00;0.00;0.62;2.00;1.00;;;26.40;26.10;;;;;;2265653;61;20402;-67
2022/10/20 10:33:29;0.00;0.00;0.62;0.00;0.00;0.62;2.00;1.43;;;26.40;26.60;;;;;;2265555;61;20356;-66
2022/10/20 10:36:26;0.00;0.00;0.62;0.00;0.00;0.62;1.63;1.20;;;26.50;26.10;;;;;;2498028;53;20608;-68
2022/10/20 10:39:14;0.00;0.00;0.62;0.00;0.00;0.62;1.83;1.13;;;26.50;26.10;;;;;;2261362;61;20396;-70
2022/10/20 10:42:16;0.00;0.00;0.62;0.00;0.00;0.62;2.07;1.50;;;26.50;26.10;;;;;;2261790;61;20381;-70
2022/10/20 10:45:18;0.00;0.00;0.62;0.00;0.00;0.62;1.70;1.10;;;26.60;26.10;;;;;;2261929;61;20600;-69
2022/10/20 10:48:32;0.00;0.00;0.62;0.00;0.00;0.62;1.73;1.10;;;26.60;26.10;;;;;;2261649;61;20445;-69
2022/10/20 10:51:32;0.00;0.00;0.62;0.00;0.00;0.62;1.80;1.23;;;26.60;26.10;;;;;;2261664;61;20397;-67
2022/10/20 10:54:35;0.00;0.00;0.62;0.00;0.00;0.62;1.90;1.20;;;26.70;26.10;;;;;;2261220;61;20952;-65
2022/10/20 10:57:30;0.00;0.00;0.62;0.00;0.00;0.62;2.00;1.43;;;26.70;26.00;;;;;;2261776;61;20585;-70
2022/10/20 11:00:24;0.00;0.00;0.62;0.00;0.00;0.62;1.80;1.17;;;26.80;26.10;;;;;;2276460;61;20411;-69
2022/10/20 11:03:28;0.00;0.00;0.62;0.00;0.00;0.62;2.17;1.53;;;26.80;26.10;;;;;;2269181;61;20415;-68